Time;durP1;ratioP1;P1;durP2;ratioP2;P2;SDS_P1;SDS_P2;PMS_P1;PMS_P2;Temp;Humidity;BMP_temperature;BMP_pressure;BME280_temperature;BME280_humidity;BME280_pressure;Samples;Min_cycle;Max_cycle;Signal;HPM_P1;HPM_P2
2021/05/21 00:00:58;;;;;;;1.88;1.65;;;;;;;6.39;84.83;93001.03;2105500;28;20160;-88
2021/05/21 00:01:59;;;;;;;2.65;1.65;;;;;;;6.37;84.91;93000.69;2101864;28;20025;-86
2021/05/21 00:03:01;;;;;;;3.40;1.70;;;;;;;6.33;83.86;92993.88;2110405;28;20492;-89
2021/05/21 00:04:03;;;;;;;2.00;1.80;;;;;;;6.30;85.30;92980.25;2118111;27;20020;-85
2021/05/21 00:05:04;;;;;;;5.25;1.70;;;;;;;6.32;84.38;92985.16;2117091;27;20015;-85
2021/05/21 00:06:05;;;;;;;2.35;1.70;;;;;;;6.36;85.62;92987.78;2108941;28;20023;-89
2021/05/21 00:07:06;;;;;;;2.20;1.48;;;;;;;6.36;85.51;92985.88;2096291;28;20657;-84
2021/05/21 00:08:10;;;;;;;3.60;1.70;;;;;;;6.37;85.36;92984.00;2093337;28;20028;-86
2021/05/21 00:09:11;;;;;;;4.15;1.70;;;;;;;6.33;85.53;92977.97;2101037;28;20016;-86
2021/05/21 00:10:12;;;;;;;1.88;1.50;;;;;;;6.37;84.86;92979.44;2101192;28;20031;-87
2021/05/21 00:11:13;;;;;;;1.83;1.63;;;;;;;6.41;84.68;92974.84;2118490;27;20050;-88
2021/05/21 00:12:14;;;;;;;2.42;1.77;;;;;;;6.34;85.73;92972.25;2116648;27;20015;-87
2021/05/21 00:13:15;;;;;;;3.97;1.45;;;;;;;6.31;85.71;92973.78;2108929;28;20081;-84
2021/05/21 00:14:18;;;;;;;4.32;2.00;;;;;;;6.31;85.48;92973.78;2101071;28;20020;-85
2021/05/21 00:15:19;;;;;;;1.88;1.63;;;;;;;6.33;85.80;92964.69;2104266;28;20067;-86
2021/05/21 00:16:19;;;;;;;2.83;2.00;;;;;;;6.24;85.22;92963.22;2096402;28;21514;-87
2021/05/21 00:17:20;;;;;;;3.45;2.00;;;;;;;6.28;84.91;92963.22;2109063;28;20024;-86
2021/05/21 00:18:21;;;;;;;5.20;1.95;;;;;;;6.31;85.11;92962.41;2108940;28;20023;-84
2021/05/21 00:19:21;;;;;;;3.30;2.00;;;;;;;6.30;85.13;92966.22;2094715;28;20382;-87
2021/05/21 00:20:22;;;;;;;3.63;1.90;;;;;;;6.18;85.19;92964.78;2104653;28;20019;-86
2021/05/21 00:21:23;;;;;;;4.53;2.10;;;;;;;6.26;84.77;92968.13;2109690;28;20069;-85
2021/05/21 00:22:24;;;;;;;2.10;1.90;;;;;;;6.23;85.40;92960.94;2104773;28;20111;-86
2021/05/21 00:23:25;;;;;;;2.55;2.13;;;;;;;6.29;83.79;92954.09;2104446;28;20404;-85
2021/05/21 00:24:26;;;;;;;3.40;2.13;;;;;;;6.31;84.30;92946.47;2109215;28;20051;-85
2021/05/21 00:25:27;;;;;;;7.90;2.20;;;;;;;6.29;84.74;92944.22;2116826;27;20065;-86
2021/05/21 00:26:27;;;;;;;4.53;2.25;;;;;;;6.18;85.16;92938.25;2118373;27;20123;-85
2021/05/21 00:27:28;;;;;;;2.10;1.90;;;;;;;6.13;85.38;92946.63;2108384;28;20482;-85
2021/05/21 00:28:29;;;;;;;2.28;2.08;;;;;;;6.12;86.17;92947.78;2099449;28;20409;-84
2021/05/21 00:29:29;;;;;;;3.78;1.92;;;;;;;6.07;85.95;92948.19;2101262;28;20024;-85
2021/05/21 00:30:30;;;;;;;3.05;2.83;;;;;;;6.15;85.08;92943.59;2104684;28;20415;-86
2021/05/21 00:31:31;;;;;;;2.88;2.10;;;;;;;6.10;85.85;92941.34;2100027;28;20032;-86
2021/05/21 00:32:31;;;;;;;3.58;2.10;;;;;;;6.05;85.68;92945.16;2104073;28;20363;-86
2021/05/21 00:33:32;;;;;;;3.35;2.03;;;;;;;6.09;86.17;92945.16;2104550;28;20105;-84
2021/05/21 00:34:33;;;;;;;6.72;2.08;;;;;;;6.11;85.66;92948.94;2108255;28;20031;-86
2021/05/21 00:35:33;;;;;;;4.35;2.20;;;;;;;6.06;85.42;92952.00;2108670;28;20031;-86
2021/05/21 00:36:34;;;;;;;3.60;2.20;;;;;;;6.14;85.84;92944.72;2116718;27;20039;-86
2021/05/21 00:37:35;;;;;;;4.68;2.30;;;;;;;6.09;86.08;92951.19;2109616;28;20488;-83
2021/05/21 00:38:35;;;;;;;9.23;2.50;;;;;;;6.03;85.97;92955.44;2108920;28;20043;-87
2021/05/21 00:39:36;;;;;;;2.38;2.13;;;;;;;5.95;86.97;92946.75;2103045;28;20032;-87
2021/05/21 00:40:37;;;;;;;2.67;2.30;;;;;;;6.02;85.19;92944.06;2116378;27;20035;-84
2021/05/21 00:41:38;;;;;;;4.93;2.10;;;;;;;5.97;86.52;92944.50;2118186;27;20046;-86
2021/05/21 00:42:38;;;;;;;2.92;2.60;;;;;;;5.93;87.09;92935.81;2117097;27;20028;-86
2021/05/21 00:43:39;;;;;;;2.50;2.30;;;;;;;5.92;86.78;92944.13;2102149;28;20426;-87
2021/05/21 00:44:40;;;;;;;3.25;2.08;;;;;;;5.86;86.89;92932.41;2094688;28;20401;-87
2021/05/21 00:45:40;;;;;;;2.92;2.00;;;;;;;5.75;87.40;92940.41;2104252;28;20028;-86
2021/05/21 00:46:41;;;;;;;2.80;1.90;;;;;;;5.85;87.28;92936.22;2112164;28;20024;-87
2021/05/21 00:47:42;;;;;;;3.30;2.22;;;;;;;5.80;87.23;92935.47;2100344;28;20028;-86
2021/05/21 00:48:43;;;;;;;2.05;1.80;;;;;;;5.78;87.22;92931.69;2108152;28;20031;-86
2021/05/21 00:49:43;;;;;;;4.63;2.05;;;;;;;5.75;87.30;92933.25;2098834;28;20028;-87
2021/05/21 00:50:44;;;;;;;2.28;2.08;;;;;;;5.69;87.55;92924.16;2100706;28;20031;-85
2021/05/21 00:51:46;;;;;;;4.07;2.20;;;;;;;5.60;88.93;92926.50;2104170;28;20035;-86
2021/05/21 00:52:47;;;;;;;6.03;2.03;;;;;;;5.62;88.77;92923.44;2104608;28;20507;-84
2021/05/21 00:53:50;;;;;;;3.35;2.00;;;;;;;5.65;88.97;92917.38;2108633;28;20126;-86
2021/05/21 00:54:51;;;;;;;1.98;1.80;;;;;;;5.59;88.75;92924.25;2108430;28;20031;-87
2021/05/21 00:55:52;;;;;;;4.75;1.90;;;;;;;5.63;88.19;92925.75;2100922;28;20116;-85
2021/05/21 00:56:53;;;;;;;4.93;1.90;;;;;;;5.62;87.98;92921.59;2110251;28;20312;-88
2021/05/21 00:57:53;;;;;;;3.35;1.80;;;;;;;5.60;88.60;92926.50;2117258;27;20066;-86
2021/05/21 00:58:57;;;;;;;4.10;1.90;;;;;;;5.60;88.15;92918.56;2108384;28;20100;-87
2021/05/21 00:59:57;;;;;;;1.90;1.80;;;;;;;5.58;89.28;92917.44;2096834;28;20071;-86
2021/05/21 01:00:58;;;;;;;3.10;2.05;;;;;;;5.49;88.75;92915.97;2100300;28;20029;-86
2021/05/21 01:02:00;;;;;;;2.20;2.00;;;;;;;5.39;88.35;92916.78;2104153;28;20020;-86
2021/05/21 01:03:00;;;;;;;2.50;1.88;;;;;;;5.39;89.32;92905.41;2112773;28;20038;-85
2021/05/21 01:04:01;;;;;;;2.70;2.10;;;;;;;5.35;90.19;92910.72;2100009;28;20579;-87
2021/05/21 01:05:04;;;;;;;4.07;1.88;;;;;;;5.47;89.40;92910.28;2108668;28;20030;-85
2021/05/21 01:06:06;;;;;;;2.38;1.67;;;;;;;5.35;89.59;92908.09;2117366;27;20476;-84
2021/05/21 01:07:08;;;;;;;2.00;1.77;;;;;;;5.35;89.40;92902.78;2116268;27;20483;-85
2021/05/21 01:08:09;;;;;;;3.50;1.70;;;;;;;5.32;89.47;92900.94;2100175;28;20023;-87
2021/05/21 01:09:10;;;;;;;2.00;1.80;;;;;;;5.31;89.56;92902.06;2104235;28;20107;-85
2021/05/21 01:10:11;;;;;;;2.75;1.80;;;;;;;5.23;89.86;92905.91;2091856;28;20329;-87
2021/05/21 01:11:12;;;;;;;2.50;1.70;;;;;;;5.19;89.92;92897.97;2109531;28;20050;-87
2021/05/21 01:12:12;;;;;;;3.38;1.83;;;;;;;5.23;89.88;92895.31;2116403;27;20030;-86
2021/05/21 01:13:13;;;;;;;2.17;1.98;;;;;;;5.13;90.94;92896.09;2107239;28;20430;-85
2021/05/21 01:14:14;;;;;;;4.03;1.80;;;;;;;5.16;90.10;92895.31;2093156;28;20031;-85
2021/05/21 01:15:16;;;;;;;3.80;1.98;;;;;;;5.13;90.48;92898.75;2099613;28;20035;-87
2021/05/21 01:16:16;;;;;;;3.40;2.22;;;;;;;5.10;90.73;92899.53;2100467;28;20040;-88
2021/05/21 01:17:19;;;;;;;2.63;1.90;;;;;;;5.15;90.23;92896.47;2100171;28;20032;-88
2021/05/21 01:18:19;;;;;;;4.38;2.50;;;;;;;5.17;89.76;92888.88;2108659;27;20031;-85
2021/05/21 01:19:20;;;;;;;4.57;2.10;;;;;;;5.06;90.81;92891.59;2108481;28;20024;-86
2021/05/21 01:20:21;;;;;;;7.15;2.08;;;;;;;5.05;90.84;92901.44;2100596;28;20077;-87
2021/05/21 01:21:22;;;;;;;2.20;2.00;;;;;;;4.95;90.56;92890.88;2109538;28;20124;-87
2021/05/21 01:22:22;;;;;;;3.15;2.10;;;;;;;4.96;91.69;92901.09;2109594;28;20030;-83
2021/05/21 01:23:23;;;;;;;6.53;2.47;;;;;;;5.01;92.34;92895.41;2100974;28;20035;-85
2021/05/21 01:24:24;;;;;;;2.92;1.80;;;;;;;4.93;92.29;92896.56;2094337;28;20032;-87
2021/05/21 01:25:25;;;;;;;3.40;2.00;;;;;;;5.04;91.81;92891.22;2104207;28;20020;-85
2021/05/21 01:26:26;;;;;;;3.28;2.05;;;;;;;4.95;91.19;92888.97;2100226;28;20036;-85
2021/05/21 01:27:27;;;;;;;5.78;1.80;;;;;;;4.93;90.85;92895.81;2097340;28;20028;-88
2021/05/21 01:28:28;;;;;;;2.97;1.80;;;;;;;4.95;90.27;92894.28;2103963;28;20086;-85
2021/05/21 01:29:29;;;;;;;1.90;1.70;;;;;;;5.01;91.67;92892.00;2104193;28;20093;-87
2021/05/21 01:30:31;;;;;;;2.63;2.00;;;;;;;4.98;91.00;92887.47;2103841;28;20040;-86
2021/05/21 01:31:33;;;;;;;3.92;2.00;;;;;;;4.96;91.04;92879.91;2104251;28;20040;-85
2021/05/21 01:32:34;;;;;;;3.92;1.60;;;;;;;4.94;91.01;92886.72;2103868;28;20032;-86
2021/05/21 01:33:34;;;;;;;6.60;2.20;;;;;;;4.86;91.51;92888.63;2103814;28;20111;-85
2021/05/21 01:34:38;;;;;;;2.13;1.70;;;;;;;4.93;90.60;92885.97;2109481;28;20043;-84
2021/05/21 01:35:40;;;;;;;3.08;1.52;;;;;;;4.89;90.19;92885.22;2109477;27;20380;-86
2021/05/21 01:36:43;;;;;;;2.75;1.70;;;;;;;4.85;90.99;92887.13;2099661;28;20477;-86
2021/05/21 01:37:45;;;;;;;3.05;1.92;;;;;;;4.78;92.09;92887.94;2108682;28;20030;-87
2021/05/21 01:39:07;;;;;;;2.60;1.55;;;;;;;4.77;92.17;92880.34;2107445;28;20036;-86
2021/05/21 01:40:08;;;;;;;7.85;2.38;;;;;;;4.66;93.50;92874.38;2105925;28;20419;-86
2021/05/21 01:41:09;;;;;;;2.15;1.70;;;;;;;4.74;93.56;92878.47;2103400;28;20032;-86
2021/05/21 01:42:14;;;;;;;2.60;1.60;;;;;;;4.68;93.31;92864.13;2106526;28;20250;-84
2021/05/21 01:43:16;;;;;;;2.85;1.50;;;;;;;4.67;92.68;92868.69;2100644;28;20031;-84
2021/05/21 01:44:16;;;;;;;2.05;1.80;;;;;;;4.72;92.28;92870.16;2098968;28;20102;-86
2021/05/21 01:45:17;;;;;;;2.38;1.92;;;;;;;4.76;92.71;92862.97;2108873;28;20034;-84
2021/05/21 01:46:20;;;;;;;3.25;1.92;;;;;;;4.74;93.13;92860.72;2108310;28;20414;-87
2021/05/21 01:47:20;;;;;;;2.15;1.95;;;;;;;4.78;92.90;92855.38;2103144;28;20016;-85
2021/05/21 01:48:21;;;;;;;4.47;2.05;;;;;;;4.86;92.42;92856.09;2091142;28;20535;-84
2021/05/21 01:49:22;;;;;;;3.80;1.88;;;;;;;4.84;91.92;92853.09;2091247;28;20156;-85
2021/05/21 01:50:23;;;;;;;1.90;1.60;;;;;;;4.84;91.82;92855.75;2108664;28;20024;-86
2021/05/21 01:51:24;;;;;;;4.20;1.92;;;;;;;4.84;91.82;92853.09;2125609;27;20072;-87
2021/05/21 01:52:25;;;;;;;2.90;2.00;;;;;;;4.94;91.80;92854.94;2109246;28;20046;-85
2021/05/21 01:53:25;;;;;;;2.78;2.10;;;;;;;4.87;92.30;92845.13;2092101;28;20039;-84
2021/05/21 01:54:28;;;;;;;3.30;1.90;;;;;;;4.86;92.31;92846.28;2099574;28;20470;-85
2021/05/21 01:55:29;;;;;;;1.90;1.70;;;;;;;4.89;91.08;92852.69;2100106;28;20072;-86
2021/05/21 01:56:29;;;;;;;2.70;1.73;;;;;;;4.96;90.42;92845.47;2095133;28;20635;-88
2021/05/21 01:57:32;;;;;;;4.10;2.10;;;;;;;4.96;91.11;92842.06;2091599;28;20064;-88
2021/05/21 01:58:33;;;;;;;2.42;1.70;;;;;;;4.96;90.97;92836.75;2095447;28;20029;-85
2021/05/21 01:59:34;;;;;;;3.22;1.98;;;;;;;4.94;91.34;92842.44;2108367;28;20023;-85
2021/05/21 02:00:34;;;;;;;2.15;1.80;;;;;;;4.97;92.18;92843.59;2117262;27;20387;-86
2021/05/21 02:01:35;;;;;;;2.00;1.80;;;;;;;4.96;91.67;92842.06;2100671;28;20027;-85
2021/05/21 02:02:36;;;;;;;4.50;2.00;;;;;;;4.88;91.80;92840.59;2100230;28;20031;-86
2021/05/21 02:05:18;;;;;;;;;;;;;;;4.98;90.46;92843.19;2142669;27;20114;-88
2021/05/21 02:06:18;;;;;;;4.50;1.70;;;;;;;4.90;90.01;92839.06;2119351;28;19911;-86
2021/05/21 02:07:19;;;;;;;3.00;1.85;;;;;;;4.87;91.45;92845.13;2103023;28;20498;-86
2021/05/21 02:08:26;;;;;;;2.35;2.00;;;;;;;4.91;91.77;92843.22;2110663;28;20439;-86
2021/05/21 02:09:27;;;;;;;2.40;2.10;;;;;;;4.82;91.92;92842.13;2119341;27;20088;-85
2021/05/21 02:10:28;;;;;;;2.67;2.20;;;;;;;4.79;91.19;92838.38;2110819;28;20031;-85
2021/05/21 02:11:29;;;;;;;3.40;1.85;;;;;;;4.76;91.27;92837.25;2108864;28;20454;-85
2021/05/21 02:12:32;;;;;;;3.55;1.90;;;;;;;4.78;91.27;92842.16;2118767;28;20019;-87
2021/05/21 02:13:32;;;;;;;5.25;1.92;;;;;;;4.71;90.80;92831.59;2117042;28;20031;-85
2021/05/21 02:14:33;;;;;;;4.18;2.20;;;;;;;4.65;91.69;92844.47;2110789;28;20114;-88
2021/05/21 02:15:34;;;;;;;3.72;2.00;;;;;;;4.68;91.87;92835.75;2111224;28;20029;-86
2021/05/21 02:16:34;;;;;;;3.00;2.00;;;;;;;4.73;91.94;92834.59;2116885;28;20031;-84
2021/05/21 02:17:35;;;;;;;4.68;2.05;;;;;;;4.69;92.55;92833.88;2116233;28;20035;-87
2021/05/21 02:18:37;;;;;;;3.13;1.98;;;;;;;4.69;92.38;92828.56;2109599;28;20039;-86
2021/05/21 02:19:38;;;;;;;3.25;2.08;;;;;;;4.69;92.49;92825.91;2117873;27;20023;-86
2021/05/21 02:20:39;;;;;;;3.15;2.40;;;;;;;4.66;93.21;92829.34;2127718;27;20031;-86
2021/05/21 02:21:42;;;;;;;5.80;1.95;;;;;;;4.61;92.66;92830.50;2119052;28;20372;-88
2021/05/21 02:22:43;;;;;;;4.97;1.92;;;;;;;4.73;92.42;92824.00;2110838;28;20036;-85
2021/05/21 02:23:43;;;;;;;3.60;1.98;;;;;;;4.63;92.00;92825.56;2102496;28;20780;-85
2021/05/21 02:24:45;;;;;;;2.00;1.80;;;;;;;4.67;91.42;92820.28;2102205;28;20028;-88
2021/05/21 02:25:47;;;;;;;2.88;1.92;;;;;;;4.63;92.76;92815.00;2118759;27;20144;-86
2021/05/21 02:26:47;;;;;;;2.25;2.03;;;;;;;4.66;93.23;92818.78;2136048;27;20018;-87
2021/05/21 02:27:50;;;;;;;3.25;1.75;;;;;;;4.61;93.04;92822.56;2136260;27;20458;-84
2021/05/21 02:28:50;;;;;;;3.13;2.00;;;;;;;4.54;92.91;92815.41;2127339;27;20058;-86
2021/05/21 02:29:52;;;;;;;4.53;2.08;;;;;;;4.54;92.81;92818.03;2118901;28;20027;-88
2021/05/21 02:30:52;;;;;;;2.67;2.08;;;;;;;4.43;92.90;92822.63;2111127;28;20071;-88
2021/05/21 02:31:53;;;;;;;2.45;1.98;;;;;;;4.44;93.27;92818.84;2102405;28;20021;-86
2021/05/21 02:32:55;;;;;;;2.70;2.10;;;;;;;4.51;94.09;92813.50;2102816;28;20111;-89
2021/05/21 02:33:55;;;;;;;6.13;1.95;;;;;;;4.51;93.80;92813.50;2100874;28;20024;-87
2021/05/21 02:34:56;;;;;;;4.00;2.10;;;;;;;4.58;92.92;92817.28;2102143;28;20489;-88
2021/05/21 02:35:57;;;;;;;2.67;1.80;;;;;;;4.62;93.27;92815.38;2118688;28;20360;-88
2021/05/21 02:36:58;;;;;;;1.92;1.73;;;;;;;4.58;92.69;92814.63;2110144;28;20107;-87
2021/05/21 02:37:58;;;;;;;2.38;2.00;;;;;;;4.54;92.76;92812.75;2110815;28;20035;-86
2021/05/21 02:38:59;;;;;;;3.85;2.13;;;;;;;4.49;93.01;92815.81;2127527;27;20023;-88
2021/05/21 02:40:00;;;;;;;2.78;2.10;;;;;;;4.50;92.58;92804.06;2118642;28;20034;-87
2021/05/21 02:41:00;;;;;;;2.45;2.00;;;;;;;4.49;93.77;92804.47;2110378;28;20048;-86
2021/05/21 02:42:01;;;;;;;3.38;2.08;;;;;;;4.43;93.38;92798.78;2109903;28;20039;-86
2021/05/21 02:43:02;;;;;;;4.00;1.98;;;;;;;4.38;93.91;92795.81;2118804;27;20016;-88
2021/05/21 02:44:03;;;;;;;3.22;1.92;;;;;;;4.36;93.17;92804.13;2126987;27;20050;-86
2021/05/21 02:45:05;;;;;;;2.35;2.15;;;;;;;4.39;93.26;92794.66;2110578;28;20038;-86
2021/05/21 02:46:06;;;;;;;2.00;1.80;;;;;;;4.29;93.27;92798.84;2110163;28;20035;-86
2021/05/21 02:47:07;;;;;;;4.60;2.20;;;;;;;4.32;93.24;92798.09;2108705;28;20024;-86
2021/05/21 02:48:07;;;;;;;2.50;1.88;;;;;;;4.28;93.27;92802.66;2110397;28;20024;-87
2021/05/21 02:49:08;;;;;;;3.38;1.85;;;;;;;4.23;92.84;92803.78;2116100;28;20043;-86
2021/05/21 02:50:09;;;;;;;2.10;1.90;;;;;;;4.23;93.40;92790.56;2101987;28;20032;-85
2021/05/21 02:51:10;;;;;;;2.13;1.80;;;;;;;4.23;93.93;92792.47;2102229;28;20464;-84
2021/05/21 02:52:10;;;;;;;2.40;2.20;;;;;;;4.17;93.66;92797.41;2110554;28;20032;-87
2021/05/21 02:53:11;;;;;;;2.88;1.88;;;;;;;4.16;94.08;92793.22;2127995;27;20026;-88
2021/05/21 02:54:12;;;;;;;2.22;2.00;;;;;;;4.21;94.38;92800.00;2117964;28;20425;-87
2021/05/21 02:55:14;;;;;;;2.33;2.20;;;;;;;4.17;94.49;92793.97;2109714;28;20448;-88
2021/05/21 02:56:15;;;;;;;3.40;2.30;;;;;;;4.20;94.61;92790.56;2110048;28;20024;-85
2021/05/21 02:57:15;;;;;;;3.50;1.90;;;;;;;4.11;93.77;92792.88;2110005;28;20031;-85
2021/05/21 02:58:16;;;;;;;2.00;1.80;;;;;;;4.15;93.98;92799.66;2126331;27;20027;-85
2021/05/21 02:59:17;;;;;;;3.10;2.03;;;;;;;4.15;94.06;92796.25;2108412;28;20024;-86
2021/05/21 03:00:19;;;;;;;3.35;2.75;;;;;;;4.07;94.85;92794.75;2101635;28;20057;-88
2021/05/21 03:01:20;;;;;;;4.47;2.80;;;;;;;4.16;95.26;92798.50;2101492;28;20477;-87
2021/05/21 03:02:22;;;;;;;3.15;2.70;;;;;;;4.07;95.18;92792.88;2101319;28;20070;-87
2021/05/21 03:03:22;;;;;;;7.75;4.03;;;;;;;4.09;95.04;92795.16;2100086;28;20785;-86
2021/05/21 03:04:23;;;;;;;12.60;6.50;;;;;;;4.04;94.90;92783.81;2092800;28;20111;-84
2021/05/21 03:05:24;;;;;;;9.15;6.00;;;;;;;4.03;95.12;92782.31;2108819;28;20140;-85
2021/05/21 03:06:25;;;;;;;8.65;5.93;;;;;;;3.98;94.92;92780.06;2102474;28;20086;-84
2021/05/21 03:07:26;;;;;;;7.38;6.60;;;;;;;4.01;94.59;92781.19;2102221;28;20024;-86
2021/05/21 03:08:26;;;;;;;7.28;6.60;;;;;;;3.96;94.74;92773.66;2100605;28;20511;-87
2021/05/21 03:09:27;;;;;;;6.47;5.88;;;;;;;3.99;94.46;92778.16;2100226;28;20393;-89
2021/05/21 03:10:28;;;;;;;4.70;4.10;;;;;;;4.07;94.88;92779.66;2092972;28;20086;-86
2021/05/21 03:11:29;;;;;;;5.03;4.07;;;;;;;4.05;94.26;92774.00;2101239;28;20020;-88
2021/05/21 03:12:29;;;;;;;4.10;3.70;;;;;;;4.05;94.14;92779.28;2101158;28;20242;-86
2021/05/21 03:13:30;;;;;;;4.85;3.33;;;;;;;3.95;94.25;92772.13;2101383;28;20067;-86
2021/05/21 03:14:31;;;;;;;3.88;3.00;;;;;;;3.98;94.59;92779.31;2101750;28;20503;-86
2021/05/21 03:15:31;;;;;;;3.53;2.40;;;;;;;3.95;93.86;92778.19;2109682;28;20016;-87
2021/05/21 03:16:32;;;;;;;2.15;2.00;;;;;;;3.94;93.78;92775.91;2096003;28;20032;-86
2021/05/21 03:17:33;;;;;;;2.47;2.28;;;;;;;3.90;94.30;92775.16;2095578;28;20412;-88
2021/05/21 03:18:33;;;;;;;8.38;1.90;;;;;;;4.01;94.99;92773.25;2104119;28;20491;-86
2021/05/21 03:19:34;;;;;;;5.20;1.83;;;;;;;3.90;94.63;92772.50;2095317;28;20024;-86
2021/05/21 03:20:35;;;;;;;2.30;1.70;;;;;;;3.88;94.14;92769.50;2087173;28;20024;-86
2021/05/21 03:21:35;;;;;;;2.33;1.65;;;;;;;3.84;95.09;92769.50;2095339;28;20033;-87
2021/05/21 03:22:36;;;;;;;3.42;1.80;;;;;;;3.79;95.09;92768.00;2104013;28;20031;-86
2021/05/21 03:23:37;;;;;;;3.35;1.80;;;;;;;3.77;94.95;92777.44;2095957;28;20089;-86
2021/05/21 03:24:38;;;;;;;4.75;2.30;;;;;;;3.79;94.95;92770.66;2112498;28;20028;-87
2021/05/21 03:25:43;;;;;;;2.95;1.90;;;;;;;3.74;94.23;92772.94;2112331;28;20394;-85
2021/05/21 03:26:43;;;;;;;3.85;2.00;;;;;;;3.68;94.26;92779.72;2103230;28;20024;-84
2021/05/21 03:27:45;;;;;;;4.78;1.80;;;;;;;3.67;94.43;92767.66;2094773;28;21114;-86
2021/05/21 03:28:45;;;;;;;4.28;1.77;;;;;;;3.71;94.52;92758.59;2095233;28;20725;-86
2021/05/21 03:29:46;;;;;;;2.38;1.73;;;;;;;3.67;95.06;92763.13;2087522;28;20032;-87
2021/05/21 03:30:47;;;;;;;1.77;1.67;;;;;;;3.67;94.88;92762.38;2104785;28;20028;-87
2021/05/21 03:31:48;;;;;;;2.00;1.70;;;;;;;3.69;94.71;92768.03;2103128;28;20322;-87
2021/05/21 03:32:49;;;;;;;2.28;1.80;;;;;;;3.67;94.79;92762.38;2095305;28;20554;-86
2021/05/21 03:33:49;;;;;;;2.00;1.63;;;;;;;3.65;95.30;92754.09;2095436;28;20024;-85
2021/05/21 03:34:51;;;;;;;3.72;1.63;;;;;;;3.66;95.69;92758.97;2088337;28;20025;-88
2021/05/21 03:35:51;;;;;;;2.83;1.88;;;;;;;3.62;94.88;92754.84;2095708;28;20028;-86
2021/05/21 03:36:52;;;;;;;4.57;3.80;;;;;;;3.62;95.43;92755.59;2096843;28;20856;-86
2021/05/21 03:37:53;;;;;;;7.90;6.05;;;;;;;3.52;94.99;92753.72;2110783;28;20053;-86
2021/05/21 03:38:54;;;;;;;7.43;6.82;;;;;;;3.54;94.84;92757.47;2112520;28;20027;-88
2021/05/21 03:39:55;;;;;;;6.60;6.00;;;;;;;3.47;94.92;92754.84;2111576;28;20038;-87
2021/05/21 03:40:56;;;;;;;5.90;5.30;;;;;;;3.51;94.79;92758.25;2104515;28;20070;-86
2021/05/21 03:41:56;;;;;;;5.43;4.20;;;;;;;3.48;94.96;92755.59;2094916;28;20063;-87
2021/05/21 03:42:58;;;;;;;4.35;3.90;;;;;;;3.47;94.02;92754.09;2104442;28;20028;-85
2021/05/21 03:43:59;;;;;;;3.70;3.20;;;;;;;3.46;94.06;92755.97;2093835;28;20051;-86
2021/05/21 03:44:59;;;;;;;3.50;2.90;;;;;;;3.50;94.58;92755.97;2095181;28;20476;-88
2021/05/21 03:46:00;;;;;;;3.80;2.70;;;;;;;3.44;94.26;92757.50;2094783;28;20035;-86
2021/05/21 03:47:02;;;;;;;5.15;2.47;;;;;;;3.42;95.45;92757.09;2103251;28;20030;-85
2021/05/21 03:48:03;;;;;;;2.72;1.92;;;;;;;3.46;96.29;92757.84;2104277;28;20020;-87
2021/05/21 03:49:04;;;;;;;2.72;2.00;;;;;;;3.41;95.96;92748.44;2110836;28;20499;-86
2021/05/21 03:50:05;;;;;;;2.70;2.00;;;;;;;3.43;95.48;92754.09;2104108;28;20052;-87
2021/05/21 03:51:06;;;;;;;2.63;1.80;;;;;;;3.46;95.35;92742.75;2095437;28;20460;-85
2021/05/21 03:52:07;;;;;;;2.10;1.90;;;;;;;3.41;95.35;92753.72;2110441;28;20035;-87
2021/05/21 03:53:08;;;;;;;3.58;1.58;;;;;;;3.46;94.91;92748.03;2103967;28;20027;-85
2021/05/21 03:54:08;;;;;;;2.35;1.90;;;;;;;3.35;94.78;92754.47;2084944;28;20460;-84
2021/05/21 03:55:10;;;;;;;5.25;1.90;;;;;;;3.42;94.48;92749.19;2095298;28;20022;-86
2021/05/21 03:56:12;;;;;;;2.15;1.75;;;;;;;3.48;95.58;92752.97;2096320;28;20033;-87
2021/05/21 03:57:12;;;;;;;4.82;1.77;;;;;;;3.45;96.09;92743.91;2088939;28;20059;-88
2021/05/21 03:58:13;;;;;;;2.15;1.60;;;;;;;3.47;96.47;92746.19;2096656;28;20111;-86
2021/05/21 03:59:14;;;;;;;2.83;1.60;;;;;;;3.45;96.69;92735.22;2102826;28;20093;-84
2021/05/21 04:00:18;;;;;;;4.25;1.90;;;;;;;3.45;96.42;92735.97;2103555;28;20082;-86
2021/05/21 04:01:19;;;;;;;2.30;2.10;;;;;;;3.62;96.21;92745.00;2111529;28;20491;-85
2021/05/21 04:02:20;;;;;;;1.70;1.60;;;;;;;3.62;95.94;92737.09;2104534;28;20102;-87
2021/05/21 04:03:20;;;;;;;4.68;1.80;;;;;;;3.63;95.98;92743.13;2087229;28;20398;-87
2021/05/21 04:04:21;;;;;;;4.18;1.55;;;;;;;3.67;96.05;92738.59;2087220;28;20037;-86
2021/05/21 04:05:22;;;;;;;1.83;1.58;;;;;;;3.80;95.50;92739.69;2086797;28;20098;-87
2021/05/21 04:06:23;;;;;;;2.25;1.90;;;;;;;3.81;95.22;92740.44;2094898;28;20070;-86
2021/05/21 04:07:23;;;;;;;1.73;1.60;;;;;;;3.89;95.89;92739.28;2086488;28;20112;-86
2021/05/21 04:08:24;;;;;;;2.08;1.80;;;;;;;3.90;95.58;92741.53;2095354;28;20086;-85
2021/05/21 04:09:25;;;;;;;1.95;1.70;;;;;;;3.88;94.87;92743.06;2102672;28;20035;-87
2021/05/21 04:10:26;;;;;;;1.98;1.77;;;;;;;3.92;94.23;92744.56;2103510;28;20025;-87
2021/05/21 04:11:27;;;;;;;2.95;2.00;;;;;;;3.91;94.07;92745.72;2086526;28;20120;-85
2021/05/21 04:12:28;;;;;;;3.45;2.00;;;;;;;3.97;95.38;92738.88;2094888;28;20526;-84
2021/05/21 04:13:29;;;;;;;2.42;2.05;;;;;;;4.08;93.89;92738.84;2101760;28;20476;-87
2021/05/21 04:14:29;;;;;;;3.40;2.10;;;;;;;4.18;93.61;92732.78;2111880;28;20031;-86
2021/05/21 04:15:31;;;;;;;1.90;1.73;;;;;;;4.09;92.85;92737.72;2103584;28;20026;-85
2021/05/21 04:16:32;;;;;;;2.88;2.00;;;;;;;4.10;93.38;92739.22;2093906;28;20264;-87
2021/05/21 04:17:33;;;;;;;2.55;2.00;;;;;;;4.10;93.22;92738.47;2095098;28;20032;-87
2021/05/21 04:18:34;;;;;;;5.30;2.10;;;;;;;4.10;94.22;92736.59;2087006;28;20024;-85
2021/05/21 04:19:34;;;;;;;3.28;1.98;;;;;;;4.10;93.92;92728.66;2093104;28;20032;-85
2021/05/21 04:20:35;;;;;;;2.58;2.00;;;;;;;4.15;93.48;92725.59;2094307;28;20035;-87
2021/05/21 04:21:36;;;;;;;5.00;2.70;;;;;;;4.14;93.71;92724.09;2094339;28;20037;-85
2021/05/21 04:22:36;;;;;;;3.85;2.60;;;;;;;4.06;93.42;92724.50;2103290;28;20495;-85
2021/05/21 04:23:40;;;;;;;4.13;2.30;;;;;;;4.14;93.51;92721.44;2103166;28;20016;-87
2021/05/21 04:24:41;;;;;;;3.65;2.30;;;;;;;4.23;93.23;92718.41;2094110;28;20025;-83
2021/05/21 04:25:42;;;;;;;3.65;2.83;;;;;;;4.21;93.03;92721.41;2086089;28;20107;-87
2021/05/21 04:26:42;;;;;;;3.88;2.40;;;;;;;4.20;92.72;92727.09;2093603;28;20078;-85
2021/05/21 04:27:43;;;;;;;2.33;2.10;;;;;;;4.22;92.57;92717.66;2085024;28;20067;-85
2021/05/21 04:28:48;;;;;;;9.18;2.90;;;;;;;4.21;93.06;92723.31;2093042;28;20036;-87
2021/05/21 04:29:48;;;;;;;2.72;2.28;;;;;;;4.22;93.35;92711.59;2112313;28;20047;-86
2021/05/21 04:30:51;;;;;;;4.28;2.40;;;;;;;4.17;93.68;92715.41;2109582;28;20032;-88
2021/05/21 04:31:52;;;;;;;3.85;1.98;;;;;;;4.20;94.07;92711.22;2095214;28;20031;-87
2021/05/21 04:32:53;;;;;;;3.40;2.45;;;;;;;4.25;93.38;92714.22;2087240;28;20036;-88
2021/05/21 04:33:53;;;;;;;2.42;1.75;;;;;;;4.25;92.81;92713.47;2094034;28;20037;-88
2021/05/21 04:34:54;;;;;;;8.32;2.83;;;;;;;4.31;93.00;92704.00;2100602;28;20031;-89
2021/05/21 04:35:55;;;;;;;4.65;3.17;;;;;;;4.29;93.39;92701.72;2104603;28;20542;-86
2021/05/21 04:36:56;;;;;;;4.35;2.97;;;;;;;4.29;92.87;92707.00;2096765;28;20032;-88
2021/05/21 04:37:57;;;;;;;4.82;2.50;;;;;;;4.35;94.32;92709.28;2095272;28;20025;-86
2021/05/21 04:38:58;;;;;;;2.60;2.40;;;;;;;4.45;93.57;92703.91;2104116;28;20030;-88
2021/05/21 04:39:59;;;;;;;2.42;1.83;;;;;;;4.48;93.49;92695.22;2096731;28;20017;-88
2021/05/21 04:40:59;;;;;;;3.40;2.00;;;;;;;4.54;93.51;92698.19;2094805;28;20028;-89
2021/05/21 04:42:00;;;;;;;5.40;1.90;;;;;;;4.58;92.87;92693.63;2103305;28;20071;-89
2021/05/21 04:43:01;;;;;;;3.17;1.60;;;;;;;4.61;92.17;92692.88;2104977;28;20508;-87
2021/05/21 04:44:02;;;;;;;4.75;2.20;;;;;;;4.65;92.65;92696.22;2096381;28;20027;-88
2021/05/21 04:45:04;;;;;;;3.75;1.85;;;;;;;4.68;92.81;92695.47;2096390;28;20020;-87
2021/05/21 04:46:06;;;;;;;2.20;1.80;;;;;;;4.74;92.69;92693.94;2110611;28;20039;-89
2021/05/21 04:47:07;;;;;;;2.45;2.13;;;;;;;4.77;92.64;92695.78;2111760;28;20019;-89
2021/05/21 04:48:08;;;;;;;5.30;1.92;;;;;;;4.84;92.20;92696.88;2103580;28;20388;-89
2021/05/21 04:49:09;;;;;;;2.83;1.95;;;;;;;4.90;92.29;92690.03;2104038;28;20497;-89
2021/05/21 04:50:09;;;;;;;2.72;2.17;;;;;;;4.98;91.17;92686.94;2104327;28;20028;-88
2021/05/21 04:51:10;;;;;;;3.70;1.80;;;;;;;5.02;90.78;92689.56;2104988;28;20443;-87
2021/05/21 04:52:11;;;;;;;2.38;2.10;;;;;;;5.28;90.79;92682.91;2092978;28;20512;-89
2021/05/21 04:53:13;;;;;;;2.95;2.03;;;;;;;5.31;90.61;92679.44;2096282;28;20054;-87